Buoy 41938

sailwx.info

Track history (hours):
 
Tides and Currents Weather Stations Pressure Air Temp Water Temp Dewpoint Dewpoint Depression Visibility Wind Speed Wind Dir Waves Ship Positions

Drifting buoy 41938

Last reported at 2014-Dec-18 12:00 UTC. Time now 2014-Dec-18 15:24 UTC.
Position N 37°44' W 062°14'.

Barometer 1010.2 mb
Water temperature 22.0 ° C

Date/timePositionNaut miles runAvg speedWind from/ knotsBaromVisibWave heightAir tempDewpointWater temp
2014-Dec-18 12:00N 37°44' W 062°14'1 0.3 1010.2 22.0
2014-Dec-18 10:00N 37°44' W 062°15'1 0.6 1009.7 21.8
2014-Dec-18 09:00N 37°44' W 062°16'2 1.9 1009.3 21.9
2014-Dec-18 08:00N 37°44' W 062°18'3 1.5 1009.4 21.9
2014-Dec-18 06:00N 37°42' W 062°20'3 2.9 1009.2 21.9
2014-Dec-18 05:00N 37°44' W 062°18'3 1.5 1008.8 21.9
2014-Dec-18 03:00N 37°42' W 062°20'0 0.0 1008.9 21.9
2014-Dec-18 02:00N 37°42' W 062°20'1 1.3 1008.2 21.8
2014-Dec-18 01:00N 37°41' W 062°22'0 0.1 1008.6 21.8
2014-Dec-18 00:00N 37°41' W 062°22'2 1.6 1008.9 21.9
2014-Dec-17 23:00N 37°42' W 062°24'1 1.2 1009.5 22.0
2014-Dec-17 22:00N 37°41' W 062°25'2 2.2 1009.8 22.0
2014-Dec-17 21:00N 37°41' W 062°28'1 0.5 1009.9 22.0
2014-Dec-17 19:00N 37°41' W 062°27'0 0.0 1011.0 21.9
2014-Dec-17 18:00N 37°41' W 062°27'0 0.0 1012.2 21.9
2014-Dec-17 17:00N 37°41' W 062°27'1 0.7 1013.3 21.9
2014-Dec-17 15:00N 37°40' W 062°29'1 1.3 1015.7 22.0
2014-Dec-17 14:00N 37°40' W 062°30'0 0.2 1017.0 22.0
2014-Dec-17 13:00N 37°40' W 062°30'1 1.1 1017.2 22.0
2014-Dec-17 12:00N 37°40' W 062°31'0 0.0 1017.0 22.0
2014-Dec-17 11:00N 37°40' W 062°31'1 1.2 1017.2 22.0
2014-Dec-17 10:00N 37°41' W 062°32'0 0.1 1017.2 22.0
2014-Dec-17 09:00N 37°41' W 062°32'1 1.0 1017.3 22.0
2014-Dec-17 08:00N 37°41' W 062°33'4 1.8 1017.7 22.0
2014-Dec-17 06:00N 37°45' W 062°34'0 0.0 1018.3 22.0
2014-Dec-17 02:00N 37°45' W 062°34'2 1.9 1019.6 22.0
2014-Dec-17 01:00N 37°46' W 062°36'0 0.0 1019.8 22.0
2014-Dec-17 00:00N 37°46' W 062°36'1 0.7 1019.8 22.0
2014-Dec-16 22:00N 37°48' W 062°36'1 1.2 1019.3 22.0
2014-Dec-16 21:00N 37°48' W 062°37'1 1.3 1019.1 22.0
2014-Dec-16 20:00N 37°50' W 062°38'6 2.8 1019.0 22.0
2014-Dec-16 18:00N 37°54' W 062°43'10 0.5 1018.4 22.0
2014-Dec-15 22:00N 38°04' W 062°40'1 1.2 1010.8 -0.1
2014-Dec-15 21:00N 38°05' W 062°40'1 0.6 1010.8 22.3
2014-Dec-15 20:00N 38°05' W 062°40'0 0.0 1010.0 22.4
2014-Dec-15 19:00N 38°05' W 062°40'1 0.6 1009.0 22.4
2014-Dec-15 17:00N 38°07' W 062°40'1 0.8 1008.0 22.4
2014-Dec-15 16:00N 38°07' W 062°40'1 0.6 1007.6 22.3
2014-Dec-15 15:00N 38°08' W 062°40'1 0.6 1007.7 22.3
2014-Dec-15 14:00N 38°08' W 062°40'3 0.8 1007.2 22.3
2014-Dec-15 10:00N 38°11' W 062°40'3 2.8 1003.3 22.3
2014-Dec-15 09:00N 38°14' W 062°41'1 1.3 1024.0 -0.1
2014-Dec-15 08:00N 38°15' W 062°42'5 5.2 1001.5 22.3
2014-Dec-15 07:00N 38°18' W 062°47'5 4.8 1001.9 22.3
2014-Dec-15 06:00N 38°15' W 062°43'5 4.8 1000.8 22.3
2014-Dec-15 05:00N 38°18' W 062°47'0 0.0 999.8 22.3
2014-Dec-15 04:00N 38°18' W 062°47'0 0.2 999.6 22.4
2014-Dec-15 02:00N 38°18' W 062°48'1 0.8 999.5 22.3
2014-Dec-15 01:00N 38°19' W 062°49'1 0.8 999.7 22.4
2014-Dec-15 00:00N 38°18' W 062°49'1 0.8 999.8 22.4
2014-Dec-14 23:00N 38°19' W 062°50'1 1.3 1000.2 22.3
2014-Dec-14 22:00N 38°17' W 062°50'1 0.8 1000.0 22.4
2014-Dec-14 21:00N 38°18' W 062°50'0 0.5 999.9 22.4
2014-Dec-14 20:00N 38°18' W 062°50'1 1.1 999.6 22.4
2014-Dec-14 19:00N 38°17' W 062°49'0 0.0 999.4 22.4
2014-Dec-14 18:00N 38°17' W 062°49'0 0.0 1000.0 22.4
2014-Dec-14 17:00N 38°17' W 062°49'1 0.8 1000.8 22.4
2014-Dec-14 16:00N 38°18' W 062°49'1 1.1 1001.6 22.4
2014-Dec-14 15:00N 38°17' W 062°47'2 1.9 1002.7 22.4
2014-Dec-14 14:00N 38°19' W 062°49'0 0.0 1003.2 22.4
2014-Dec-14 11:00N 38°19' W 062°49'2 1.5 1002.9 22.4
2014-Dec-14 10:00N 38°19' W 062°51'1 0.9 1002.7 22.4
2014-Dec-14 09:00N 38°19' W 062°52'0 0.0 1002.8 22.4
2014-Dec-14 08:00N 38°19' W 062°52'1 1.1 1002.6 22.4
2014-Dec-14 07:00N 38°19' W 062°53'0 0.0 1002.5 22.4
2014-Dec-14 06:00N 38°19' W 062°53'0 0.0 1002.5 22.4
2014-Dec-14 05:00N 38°19' W 062°53'2 1.5 1002.5 22.5
2014-Dec-14 04:00N 38°17' W 062°55'1 0.5 1002.6 22.5
2014-Dec-14 02:00N 38°18' W 062°55'0 0.1 1002.9 22.5
2014-Dec-14 01:00N 38°18' W 062°55'0 0.2 1002.4 22.5
2014-Dec-14 00:00N 38°18' W 062°54'1 0.8 1002.4 22.5
2014-Dec-13 23:00N 38°18' W 062°53'13 0.5 1002.7 22.5
2014-Dec-12 22:00N 38°16' W 063°10'1 0.7 1010.1 22.7
2014-Dec-12 21:00N 38°16' W 063°11'0 0.0 1009.7 22.7
2014-Dec-12 20:00N 38°16' W 063°11'3 3.5 1009.9 22.6
2014-Dec-12 19:00N 38°13' W 063°14'4 3.7 1010.2 22.6
2014-Dec-12 18:00N 38°11' W 063°17'11 0.7 1010.4 22.7
2014-Dec-12 02:00N 37°60' W 063°21'1 0.9 1014.8 22.8
2014-Dec-12 01:00N 37°60' W 063°22'1 0.5 1014.7 22.9
2014-Dec-11 23:00N 38°00' W 063°23'2 0.8 1014.6 22.9
2014-Dec-11 21:00N 37°59' W 063°24'1 0.7 1013.5 22.8
2014-Dec-11 20:00N 37°58' W 063°23'0 0.3 1013.2 22.9
2014-Dec-11 19:00N 37°58' W 063°23'2 0.8 1012.9 22.9
2014-Dec-11 17:00N 37°56' W 063°23'2 1.0 1012.7 22.9
2014-Dec-11 15:00N 37°55' W 063°21'0 0.4 1013.2 22.8
2014-Dec-11 14:00N 37°54' W 063°21'2 1.5 1012.9 22.8
2014-Dec-11 13:00N 37°54' W 063°19'0 0.1 1012.4 22.8
2014-Dec-11 10:00N 37°54' W 063°18'0 0.1 1009.7 22.8
2014-Dec-11 09:00N 37°54' W 063°18'0 0.3 1008.7 22.8
2014-Dec-11 08:00N 37°54' W 063°18'0 0.4 1007.7 22.8
2014-Dec-11 07:00N 37°54' W 063°18'0 0.2 1007.0 22.8
2014-Dec-11 06:00N 37°54' W 063°18'0 0.1 1006.1 22.8
2014-Dec-11 05:00N 37°54' W 063°18'1 0.4 1005.3 22.9
2014-Dec-11 02:00N 37°53' W 063°18'0 0.0 1003.8 22.9
2014-Dec-11 01:00N 37°53' W 063°18'0 0.4 1003.1 22.9
2014-Dec-11 00:00N 37°53' W 063°18'1 1.3 1003.2 22.9
2014-Dec-10 23:00N 37°52' W 063°18'1 1.1 1002.0 22.9
2014-Dec-10 22:00N 37°51' W 063°17'0 0.1 1001.6 23.0
2014-Dec-10 21:00N 37°51' W 063°17'3 2.9 1001.8 23.0
2014-Dec-10 20:00N 37°49' W 063°14'0 0.0 1001.0 23.0
2014-Dec-10 19:00N 37°49' W 063°14'7 3.6 1000.9 23.0
2014-Dec-10 17:00N 37°48' W 063°05'1 0.5 1003.9 23.0
2014-Dec-10 15:00N 37°48' W 063°04'1 1.0 1006.8 22.8
2014-Dec-10 14:00N 37°48' W 063°03'5 1.2 1007.0 22.6
2014-Dec-10 10:00N 37°46' W 062°57'2 2.0 1007.9 22.3
2014-Dec-10 09:00N 37°45' W 062°55'1 1.3 1008.6 22.3
2014-Dec-10 08:00N 37°44' W 062°55'2 2.2 1009.2 22.3
2014-Dec-10 07:00N 37°44' W 062°52'6 5.7 1010.0 22.3
2014-Dec-10 06:00N 37°39' W 062°48'6 5.7 1010.6 22.3
2014-Dec-10 05:00N 37°44' W 062°52'7 2.2 1011.4 22.3
2014-Dec-10 02:00N 37°39' W 062°47'4 2.2 1013.9 22.4
2014-Dec-10 00:00N 37°35' W 062°43'1 0.6 1014.9 22.4
2014-Dec-09 22:00N 37°36' W 062°42'1 1.3 1016.5 -0.1
2014-Dec-09 21:00N 37°35' W 062°43'2 2.1 1016.5 22.3
2014-Dec-09 20:00N 37°35' W 062°41'3 2.6 1017.4 22.3
2014-Dec-09 19:00N 37°33' W 062°38'0 0.0 1017.6 22.4
2014-Dec-09 18:00N 37°33' W 062°38'0 0.0 1018.2 22.4
2014-Dec-09 17:00N 37°33' W 062°38'7 2.3 1018.7 22.4
2014-Dec-09 14:00N 37°29' W 062°31'0 0.0 1021.6 22.2
2014-Dec-09 11:00N 37°29' W 062°31'1 1.2 1022.8 22.4
2014-Dec-09 10:00N 37°28' W 062°30'1 1.0 1022.9 22.4
2014-Dec-09 09:00N 37°27' W 062°29'2 1.6 1023.0 22.4
2014-Dec-09 08:00N 37°27' W 062°27'5 2.4 1023.4 22.4
2014-Dec-09 06:00N 37°25' W 062°21'0 0.0 1024.2 22.4
2014-Dec-09 02:00N 37°25' W 062°21'3 2.7 1025.1 22.6
2014-Dec-09 01:00N 37°25' W 062°18'0 0.0 1025.5 22.6
2014-Dec-09 00:00N 37°25' W 062°18'2 1.9 1025.7 22.6
2014-Dec-08 23:00N 37°25' W 062°15'4 0.8 1025.6 22.4
2014-Dec-08 18:00N 37°26' W 062°11'0 0.0 1023.4 22.4
2014-Dec-08 17:00N 37°26' W 062°11'3 1.7 1023.5 22.4
2014-Dec-08 15:00N 37°27' W 062°07'5 4.8 1023.5 22.4
2014-Dec-08 14:00N 37°27' W 062°01'   1023.4 22.5
Track history (hours):
 
Tides and Currents Weather Stations Pressure Air Temp Water Temp Dewpoint Dewpoint Depression Visibility Wind Speed Wind Dir Waves Ship Positions

Drifting buoy 41938

Last reported at 2014-Dec-18 12:00 UTC. Time now 2014-Dec-18 15:24 UTC.
Position N 37°44' W 062°14'.

Barometer 1010.2 mb
Water temperature 22.0 ° C

Date/timePositionNaut miles runAvg speedWind from/ knotsBaromVisibWave heightAir tempDewpointWater temp
2014-Dec-18 12:00N 37°44' W 062°14'1 0.3 1010.2 22.0
2014-Dec-18 10:00N 37°44' W 062°15'1 0.6 1009.7 21.8
2014-Dec-18 09:00N 37°44' W 062°16'2 1.9 1009.3 21.9
2014-Dec-18 08:00N 37°44' W 062°18'3 1.5 1009.4 21.9
2014-Dec-18 06:00N 37°42' W 062°20'3 2.9 1009.2 21.9
2014-Dec-18 05:00N 37°44' W 062°18'3 1.5 1008.8 21.9
2014-Dec-18 03:00N 37°42' W 062°20'0 0.0 1008.9 21.9
2014-Dec-18 02:00N 37°42' W 062°20'1 1.3 1008.2 21.8
2014-Dec-18 01:00N 37°41' W 062°22'0 0.1 1008.6 21.8
2014-Dec-18 00:00N 37°41' W 062°22'2 1.6 1008.9 21.9
2014-Dec-17 23:00N 37°42' W 062°24'1 1.2 1009.5 22.0
2014-Dec-17 22:00N 37°41' W 062°25'2 2.2 1009.8 22.0
2014-Dec-17 21:00N 37°41' W 062°28'1 0.5 1009.9 22.0
2014-Dec-17 19:00N 37°41' W 062°27'0 0.0 1011.0 21.9
2014-Dec-17 18:00N 37°41' W 062°27'0 0.0 1012.2 21.9
2014-Dec-17 17:00N 37°41' W 062°27'1 0.7 1013.3 21.9
2014-Dec-17 15:00N 37°40' W 062°29'1 1.3 1015.7 22.0
2014-Dec-17 14:00N 37°40' W 062°30'0 0.2 1017.0 22.0
2014-Dec-17 13:00N 37°40' W 062°30'1 1.1 1017.2 22.0
2014-Dec-17 12:00N 37°40' W 062°31'0 0.0 1017.0 22.0
2014-Dec-17 11:00N 37°40' W 062°31'1 1.2 1017.2 22.0
2014-Dec-17 10:00N 37°41' W 062°32'0 0.1 1017.2 22.0
2014-Dec-17 09:00N 37°41' W 062°32'1 1.0 1017.3 22.0
2014-Dec-17 08:00N 37°41' W 062°33'4 1.8 1017.7 22.0
2014-Dec-17 06:00N 37°45' W 062°34'0 0.0 1018.3 22.0
2014-Dec-17 02:00N 37°45' W 062°34'2 1.9 1019.6 22.0
2014-Dec-17 01:00N 37°46' W 062°36'0 0.0 1019.8 22.0
2014-Dec-17 00:00N 37°46' W 062°36'1 0.7 1019.8 22.0
2014-Dec-16 22:00N 37°48' W 062°36'1 1.2 1019.3 22.0
2014-Dec-16 21:00N 37°48' W 062°37'1 1.3 1019.1 22.0
2014-Dec-16 20:00N 37°50' W 062°38'6 2.8 1019.0 22.0
2014-Dec-16 18:00N 37°54' W 062°43'10 0.5 1018.4 22.0
2014-Dec-15 22:00N 38°04' W 062°40'1 1.2 1010.8 -0.1
2014-Dec-15 21:00N 38°05' W 062°40'1 0.6 1010.8 22.3
2014-Dec-15 20:00N 38°05' W 062°40'0 0.0 1010.0 22.4
2014-Dec-15 19:00N 38°05' W 062°40'1 0.6 1009.0 22.4
2014-Dec-15 17:00N 38°07' W 062°40'1 0.8 1008.0 22.4
2014-Dec-15 16:00N 38°07' W 062°40'1 0.6 1007.6 22.3
2014-Dec-15 15:00N 38°08' W 062°40'1 0.6 1007.7 22.3
2014-Dec-15 14:00N 38°08' W 062°40'3 0.8 1007.2 22.3
2014-Dec-15 10:00N 38°11' W 062°40'3 2.8 1003.3 22.3
2014-Dec-15 09:00N 38°14' W 062°41'1 1.3 1024.0 -0.1
2014-Dec-15 08:00N 38°15' W 062°42'5 5.2 1001.5 22.3
2014-Dec-15 07:00N 38°18' W 062°47'5 4.8 1001.9 22.3
2014-Dec-15 06:00N 38°15' W 062°43'5 4.8 1000.8 22.3
2014-Dec-15 05:00N 38°18' W 062°47'0 0.0 999.8 22.3
2014-Dec-15 04:00N 38°18' W 062°47'0 0.2 999.6 22.4
2014-Dec-15 02:00N 38°18' W 062°48'1 0.8 999.5 22.3
2014-Dec-15 01:00N 38°19' W 062°49'1 0.8 999.7 22.4
2014-Dec-15 00:00N 38°18' W 062°49'1 0.8 999.8 22.4
2014-Dec-14 23:00N 38°19' W 062°50'1 1.3 1000.2 22.3
2014-Dec-14 22:00N 38°17' W 062°50'1 0.8 1000.0 22.4
2014-Dec-14 21:00N 38°18' W 062°50'0 0.5 999.9 22.4
2014-Dec-14 20:00N 38°18' W 062°50'1 1.1 999.6 22.4
2014-Dec-14 19:00N 38°17' W 062°49'0 0.0 999.4 22.4
2014-Dec-14 18:00N 38°17' W 062°49'0 0.0 1000.0 22.4
2014-Dec-14 17:00N 38°17' W 062°49'1 0.8 1000.8 22.4
2014-Dec-14 16:00N 38°18' W 062°49'1 1.1 1001.6 22.4
2014-Dec-14 15:00N 38°17' W 062°47'2 1.9 1002.7 22.4
2014-Dec-14 14:00N 38°19' W 062°49'0 0.0 1003.2 22.4
2014-Dec-14 11:00N 38°19' W 062°49'2 1.5 1002.9 22.4
2014-Dec-14 10:00N 38°19' W 062°51'1 0.9 1002.7 22.4
2014-Dec-14 09:00N 38°19' W 062°52'0 0.0 1002.8 22.4
2014-Dec-14 08:00N 38°19' W 062°52'1 1.1 1002.6 22.4
2014-Dec-14 07:00N 38°19' W 062°53'0 0.0 1002.5 22.4
2014-Dec-14 06:00N 38°19' W 062°53'0 0.0 1002.5 22.4
2014-Dec-14 05:00N 38°19' W 062°53'2 1.5 1002.5 22.5
2014-Dec-14 04:00N 38°17' W 062°55'1 0.5 1002.6 22.5
2014-Dec-14 02:00N 38°18' W 062°55'0 0.1 1002.9 22.5
2014-Dec-14 01:00N 38°18' W 062°55'0 0.2 1002.4 22.5
2014-Dec-14 00:00N 38°18' W 062°54'1 0.8 1002.4 22.5
2014-Dec-13 23:00N 38°18' W 062°53'13 0.5 1002.7 22.5
2014-Dec-12 22:00N 38°16' W 063°10'1 0.7 1010.1 22.7
2014-Dec-12 21:00N 38°16' W 063°11'0 0.0 1009.7 22.7
2014-Dec-12 20:00N 38°16' W 063°11'3 3.5 1009.9 22.6
2014-Dec-12 19:00N 38°13' W 063°14'4 3.7 1010.2 22.6
2014-Dec-12 18:00N 38°11' W 063°17'11 0.7 1010.4 22.7
2014-Dec-12 02:00N 37°60' W 063°21'1 0.9 1014.8 22.8
2014-Dec-12 01:00N 37°60' W 063°22'1 0.5 1014.7 22.9
2014-Dec-11 23:00N 38°00' W 063°23'2 0.8 1014.6 22.9
2014-Dec-11 21:00N 37°59' W 063°24'1 0.7 1013.5 22.8
2014-Dec-11 20:00N 37°58' W 063°23'0 0.3 1013.2 22.9
2014-Dec-11 19:00N 37°58' W 063°23'2 0.8 1012.9 22.9
2014-Dec-11 17:00N 37°56' W 063°23'2 1.0 1012.7 22.9
2014-Dec-11 15:00N 37°55' W 063°21'0 0.4 1013.2 22.8
2014-Dec-11 14:00N 37°54' W 063°21'2 1.5 1012.9 22.8
2014-Dec-11 13:00N 37°54' W 063°19'0 0.1 1012.4 22.8
2014-Dec-11 10:00N 37°54' W 063°18'0 0.1 1009.7 22.8
2014-Dec-11 09:00N 37°54' W 063°18'0 0.3 1008.7 22.8
2014-Dec-11 08:00N 37°54' W 063°18'0 0.4 1007.7 22.8
2014-Dec-11 07:00N 37°54' W 063°18'0 0.2 1007.0 22.8
2014-Dec-11 06:00N 37°54' W 063°18'0 0.1 1006.1 22.8
2014-Dec-11 05:00N 37°54' W 063°18'1 0.4 1005.3 22.9
2014-Dec-11 02:00N 37°53' W 063°18'0 0.0 1003.8 22.9
2014-Dec-11 01:00N 37°53' W 063°18'0 0.4 1003.1 22.9
2014-Dec-11 00:00N 37°53' W 063°18'1 1.3 1003.2 22.9
2014-Dec-10 23:00N 37°52' W 063°18'1 1.1 1002.0 22.9
2014-Dec-10 22:00N 37°51' W 063°17'0 0.1 1001.6 23.0
2014-Dec-10 21:00N 37°51' W 063°17'3 2.9 1001.8 23.0
2014-Dec-10 20:00N 37°49' W 063°14'0 0.0 1001.0 23.0
2014-Dec-10 19:00N 37°49' W 063°14'7 3.6 1000.9 23.0
2014-Dec-10 17:00N 37°48' W 063°05'1 0.5 1003.9 23.0
2014-Dec-10 15:00N 37°48' W 063°04'1 1.0 1006.8 22.8
2014-Dec-10 14:00N 37°48' W 063°03'5 1.2 1007.0 22.6
2014-Dec-10 10:00N 37°46' W 062°57'2 2.0 1007.9 22.3
2014-Dec-10 09:00N 37°45' W 062°55'1 1.3 1008.6 22.3
2014-Dec-10 08:00N 37°44' W 062°55'2 2.2 1009.2 22.3
2014-Dec-10 07:00N 37°44' W 062°52'6 5.7 1010.0 22.3
2014-Dec-10 06:00N 37°39' W 062°48'6 5.7 1010.6 22.3
2014-Dec-10 05:00N 37°44' W 062°52'7 2.2 1011.4 22.3
2014-Dec-10 02:00N 37°39' W 062°47'4 2.2 1013.9 22.4
2014-Dec-10 00:00N 37°35' W 062°43'1 0.6 1014.9 22.4
2014-Dec-09 22:00N 37°36' W 062°42'1 1.3 1016.5 -0.1
2014-Dec-09 21:00N 37°35' W 062°43'2 2.1 1016.5 22.3
2014-Dec-09 20:00N 37°35' W 062°41'3 2.6 1017.4 22.3
2014-Dec-09 19:00N 37°33' W 062°38'0 0.0 1017.6 22.4
2014-Dec-09 18:00N 37°33' W 062°38'0 0.0 1018.2 22.4
2014-Dec-09 17:00N 37°33' W 062°38'7 2.3 1018.7 22.4
2014-Dec-09 14:00N 37°29' W 062°31'0 0.0 1021.6 22.2
2014-Dec-09 11:00N 37°29' W 062°31'1 1.2 1022.8 22.4
2014-Dec-09 10:00N 37°28' W 062°30'1 1.0 1022.9 22.4
2014-Dec-09 09:00N 37°27' W 062°29'2 1.6 1023.0 22.4
2014-Dec-09 08:00N 37°27' W 062°27'5 2.4 1023.4 22.4
2014-Dec-09 06:00N 37°25' W 062°21'0 0.0 1024.2 22.4
2014-Dec-09 02:00N 37°25' W 062°21'3 2.7 1025.1 22.6
2014-Dec-09 01:00N 37°25' W 062°18'0 0.0 1025.5 22.6
2014-Dec-09 00:00N 37°25' W 062°18'2 1.9 1025.7 22.6
2014-Dec-08 23:00N 37°25' W 062°15'4 0.8 1025.6 22.4
2014-Dec-08 18:00N 37°26' W 062°11'0 0.0 1023.4 22.4
2014-Dec-08 17:00N 37°26' W 062°11'3 1.7 1023.5 22.4
2014-Dec-08 15:00N 37°27' W 062°07'5 4.8 1023.5 22.4
2014-Dec-08 14:00N 37°27' W 062°01'   1023.4 22.5

Dump ship's entire track history